sensor_id;sensor_type;location;lat;lon;timestamp;P1;durP1;ratioP1;P2;durP2;ratioP2
32198;SDS011;19221;42.656;21.156;2022-07-10T00:00:17;11.35;;;9.30;;
32198;SDS011;19221;42.656;21.156;2022-07-10T00:02:46;11.20;;;8.57;;
32198;SDS011;19221;42.656;21.156;2022-07-10T00:05:12;15.75;;;8.40;;
32198;SDS011;19221;42.656;21.156;2022-07-10T00:07:37;17.83;;;9.35;;
32198;SDS011;19221;42.656;21.156;2022-07-10T00:10:06;11.88;;;8.15;;
32198;SDS011;19221;42.656;21.156;2022-07-10T00:12:34;14.68;;;9.30;;
32198;SDS011;19221;42.656;21.156;2022-07-10T00:15:02;14.70;;;8.80;;
32198;SDS011;19221;42.656;21.156;2022-07-10T00:17:31;15.93;;;9.50;;
32198;SDS011;19221;42.656;21.156;2022-07-10T00:20:01;12.23;;;9.63;;
32198;SDS011;19221;42.656;21.156;2022-07-10T00:22:26;22.33;;;10.73;;
32198;SDS011;19221;42.656;21.156;2022-07-10T00:24:53;19.45;;;10.65;;
32198;SDS011;19221;42.656;21.156;2022-07-10T00:27:23;12.00;;;10.13;;
32198;SDS011;19221;42.656;21.156;2022-07-10T00:29:53;18.13;;;10.30;;
32198;SDS011;19221;42.656;21.156;2022-07-10T00:32:20;20.90;;;10.60;;
32198;SDS011;19221;42.656;21.156;2022-07-10T00:34:47;17.95;;;9.80;;
32198;SDS011;19221;42.656;21.156;2022-07-10T00:37:13;17.17;;;8.88;;
32198;SDS011;19221;42.656;21.156;2022-07-10T00:39:40;12.32;;;7.57;;
32198;SDS011;19221;42.656;21.156;2022-07-10T00:42:09;12.45;;;7.55;;
32198;SDS011;19221;42.656;21.156;2022-07-10T00:44:36;14.18;;;8.00;;
32198;SDS011;19221;42.656;21.156;2022-07-10T00:50:08;11.68;;;7.95;;
32198;SDS011;19221;42.656;21.156;2022-07-10T00:52:39;11.25;;;8.57;;
32198;SDS011;19221;42.656;21.156;2022-07-10T00:55:07;11.07;;;8.05;;
32198;SDS011;19221;42.656;21.156;2022-07-10T00:57:33;11.90;;;8.38;;
32198;SDS011;19221;42.656;21.156;2022-07-10T01:06:09;14.38;;;8.13;;
32198;SDS011;19221;42.656;21.156;2022-07-10T01:08:35;12.00;;;8.65;;
32198;SDS011;19221;42.656;21.156;2022-07-10T01:11:04;11.68;;;8.68;;
32198;SDS011;19221;42.656;21.156;2022-07-10T01:13:35;10.60;;;8.30;;
32198;SDS011;19221;42.656;21.156;2022-07-10T01:16:01;11.30;;;9.13;;
32198;SDS011;19221;42.656;21.156;2022-07-10T01:18:28;16.30;;;9.25;;
32198;SDS011;19221;42.656;21.156;2022-07-10T01:20:54;15.82;;;7.78;;
32198;SDS011;19221;42.656;21.156;2022-07-10T01:23:27;13.80;;;8.23;;
32198;SDS011;19221;42.656;21.156;2022-07-10T01:25:58;9.95;;;8.20;;
32198;SDS011;19221;42.656;21.156;2022-07-10T01:28:27;13.30;;;7.53;;
32198;SDS011;19221;42.656;21.156;2022-07-10T01:30:56;14.50;;;7.85;;
32198;SDS011;19221;42.656;21.156;2022-07-10T01:33:22;13.82;;;7.70;;
32198;SDS011;19221;42.656;21.156;2022-07-10T01:35:49;11.80;;;7.32;;
32198;SDS011;19221;42.656;21.156;2022-07-10T01:38:15;11.35;;;7.20;;
32198;SDS011;19221;42.656;21.156;2022-07-10T01:43:13;14.27;;;7.22;;
32198;SDS011;19221;42.656;21.156;2022-07-10T01:45:39;10.85;;;7.85;;
32198;SDS011;19221;42.656;21.156;2022-07-10T01:48:04;10.88;;;7.90;;
32198;SDS011;19221;42.656;21.156;2022-07-10T01:50:30;17.20;;;7.75;;
32198;SDS011;19221;42.656;21.156;2022-07-10T01:52:56;11.52;;;7.50;;
32198;SDS011;19221;42.656;21.156;2022-07-10T01:55:24;15.35;;;8.10;;
32198;SDS011;19221;42.656;21.156;2022-07-10T01:57:52;12.38;;;7.95;;
32198;SDS011;19221;42.656;21.156;2022-07-10T02:00:19;13.45;;;7.40;;
32198;SDS011;19221;42.656;21.156;2022-07-10T02:02:45;14.32;;;7.90;;
32198;SDS011;19221;42.656;21.156;2022-07-10T02:05:34;12.68;;;7.60;;
32198;SDS011;19221;42.656;21.156;2022-07-10T02:08:00;13.68;;;7.60;;
32198;SDS011;19221;42.656;21.156;2022-07-10T02:10:33;12.57;;;7.68;;
32198;SDS011;19221;42.656;21.156;2022-07-10T02:13:01;11.85;;;7.53;;
32198;SDS011;19221;42.656;21.156;2022-07-10T02:15:27;15.45;;;7.95;;
32198;SDS011;19221;42.656;21.156;2022-07-10T02:17:55;10.23;;;7.72;;
32198;SDS011;19221;42.656;21.156;2022-07-10T02:20:21;12.52;;;8.65;;
32198;SDS011;19221;42.656;21.156;2022-07-10T02:22:47;16.17;;;8.52;;
32198;SDS011;19221;42.656;21.156;2022-07-10T02:25:16;13.77;;;9.27;;
32198;SDS011;19221;42.656;21.156;2022-07-10T02:27:44;12.57;;;9.02;;
32198;SDS011;19221;42.656;21.156;2022-07-10T02:30:10;13.73;;;8.85;;
32198;SDS011;19221;42.656;21.156;2022-07-10T02:32:35;15.27;;;7.97;;
32198;SDS011;19221;42.656;21.156;2022-07-10T02:35:02;10.02;;;7.47;;
32198;SDS011;19221;42.656;21.156;2022-07-10T02:37:29;16.75;;;7.88;;
32198;SDS011;19221;42.656;21.156;2022-07-10T02:39:56;12.10;;;7.72;;
32198;SDS011;19221;42.656;21.156;2022-07-10T02:42:23;12.75;;;8.13;;
32198;SDS011;19221;42.656;21.156;2022-07-10T02:44:52;11.50;;;7.82;;
32198;SDS011;19221;42.656;21.156;2022-07-10T02:47:31;14.88;;;7.25;;
32198;SDS011;19221;42.656;21.156;2022-07-10T02:49:57;15.05;;;7.53;;
32198;SDS011;19221;42.656;21.156;2022-07-10T02:52:23;10.55;;;7.93;;
32198;SDS011;19221;42.656;21.156;2022-07-10T02:54:49;11.68;;;8.55;;
32198;SDS011;19221;42.656;21.156;2022-07-10T02:57:16;13.27;;;8.25;;
32198;SDS011;19221;42.656;21.156;2022-07-10T02:59:44;16.27;;;7.15;;
32198;SDS011;19221;42.656;21.156;2022-07-10T03:02:10;9.93;;;7.35;;
32198;SDS011;19221;42.656;21.156;2022-07-10T03:04:35;8.25;;;6.60;;
32198;SDS011;19221;42.656;21.156;2022-07-10T03:07:04;6.90;;;6.18;;
32198;SDS011;19221;42.656;21.156;2022-07-10T03:09:51;9.45;;;6.35;;
32198;SDS011;19221;42.656;21.156;2022-07-10T03:12:17;11.27;;;6.63;;
32198;SDS011;19221;42.656;21.156;2022-07-10T03:14:43;8.23;;;6.72;;
32198;SDS011;19221;42.656;21.156;2022-07-10T03:17:09;12.52;;;6.97;;
32198;SDS011;19221;42.656;21.156;2022-07-10T03:19:35;11.98;;;7.15;;
32198;SDS011;19221;42.656;21.156;2022-07-10T03:22:05;12.77;;;7.30;;
32198;SDS011;19221;42.656;21.156;2022-07-10T03:24:31;7.88;;;6.90;;
32198;SDS011;19221;42.656;21.156;2022-07-10T03:26:57;8.85;;;6.82;;
32198;SDS011;19221;42.656;21.156;2022-07-10T03:29:23;11.05;;;7.05;;
32198;SDS011;19221;42.656;21.156;2022-07-10T03:31:50;8.63;;;6.28;;
32198;SDS011;19221;42.656;21.156;2022-07-10T03:34:17;16.20;;;8.02;;
32198;SDS011;19221;42.656;21.156;2022-07-10T03:36:44;9.98;;;7.35;;
32198;SDS011;19221;42.656;21.156;2022-07-10T03:39:10;7.60;;;6.82;;
32198;SDS011;19221;42.656;21.156;2022-07-10T03:41:37;8.50;;;6.38;;
32198;SDS011;19221;42.656;21.156;2022-07-10T03:44:07;8.27;;;6.35;;
32198;SDS011;19221;42.656;21.156;2022-07-10T03:46:33;8.00;;;6.80;;
32198;SDS011;19221;42.656;21.156;2022-07-10T03:49:01;8.88;;;6.28;;
32198;SDS011;19221;42.656;21.156;2022-07-10T03:51:30;11.05;;;6.25;;
32198;SDS011;19221;42.656;21.156;2022-07-10T03:54:16;7.30;;;5.43;;
32198;SDS011;19221;42.656;21.156;2022-07-10T03:56:43;9.20;;;5.57;;
32198;SDS011;19221;42.656;21.156;2022-07-10T03:59:27;8.82;;;5.57;;
32198;SDS011;19221;42.656;21.156;2022-07-10T04:04:58;6.00;;;4.95;;
32198;SDS011;19221;42.656;21.156;2022-07-10T04:07:24;7.60;;;4.85;;
32198;SDS011;19221;42.656;21.156;2022-07-10T04:09:51;7.70;;;5.00;;
32198;SDS011;19221;42.656;21.156;2022-07-10T04:12:19;5.68;;;5.10;;
32198;SDS011;19221;42.656;21.156;2022-07-10T04:15:00;9.73;;;5.78;;
32198;SDS011;19221;42.656;21.156;2022-07-10T04:17:26;14.90;;;6.80;;
32198;SDS011;19221;42.656;21.156;2022-07-10T04:19:54;13.05;;;6.97;;
32198;SDS011;19221;42.656;21.156;2022-07-10T04:22:26;13.13;;;6.93;;
32198;SDS011;19221;42.656;21.156;2022-07-10T04:24:54;12.57;;;8.48;;
32198;SDS011;19221;42.656;21.156;2022-07-10T04:27:23;14.50;;;8.82;;
32198;SDS011;19221;42.656;21.156;2022-07-10T04:29:50;20.35;;;10.18;;
32198;SDS011;19221;42.656;21.156;2022-07-10T04:35:29;14.88;;;10.25;;
32198;SDS011;19221;42.656;21.156;2022-07-10T04:37:56;15.70;;;8.93;;
32198;SDS011;19221;42.656;21.156;2022-07-10T04:40:23;13.48;;;7.88;;
32198;SDS011;19221;42.656;21.156;2022-07-10T04:42:49;16.58;;;8.70;;
32198;SDS011;19221;42.656;21.156;2022-07-10T04:45:16;13.68;;;9.60;;
32198;SDS011;19221;42.656;21.156;2022-07-10T04:47:46;16.00;;;9.57;;
32198;SDS011;19221;42.656;21.156;2022-07-10T04:50:11;14.80;;;9.50;;
32198;SDS011;19221;42.656;21.156;2022-07-10T04:52:37;16.73;;;9.38;;
32198;SDS011;19221;42.656;21.156;2022-07-10T04:55:06;14.85;;;9.13;;
32198;SDS011;19221;42.656;21.156;2022-07-10T04:57:32;14.45;;;9.25;;
32198;SDS011;19221;42.656;21.156;2022-07-10T05:00:03;10.03;;;8.60;;
32198;SDS011;19221;42.656;21.156;2022-07-10T05:02:33;15.13;;;8.95;;
32198;SDS011;19221;42.656;21.156;2022-07-10T05:05:04;13.15;;;8.70;;
32198;SDS011;19221;42.656;21.156;2022-07-10T05:07:32;12.85;;;8.63;;
32198;SDS011;19221;42.656;21.156;2022-07-10T05:10:03;11.65;;;8.05;;
32198;SDS011;19221;42.656;21.156;2022-07-10T05:12:30;13.20;;;8.80;;
32198;SDS011;19221;42.656;21.156;2022-07-10T05:14:58;18.83;;;8.88;;
32198;SDS011;19221;42.656;21.156;2022-07-10T05:17:29;15.55;;;9.65;;
32198;SDS011;19221;42.656;21.156;2022-07-10T05:19:55;14.63;;;9.70;;
32198;SDS011;19221;42.656;21.156;2022-07-10T05:22:22;15.80;;;10.23;;
32198;SDS011;19221;42.656;21.156;2022-07-10T05:24:48;18.63;;;10.50;;
32198;SDS011;19221;42.656;21.156;2022-07-10T05:27:17;16.48;;;9.95;;
32198;SDS011;19221;42.656;21.156;2022-07-10T05:29:48;15.80;;;10.80;;
32198;SDS011;19221;42.656;21.156;2022-07-10T05:32:13;15.75;;;11.25;;
32198;SDS011;19221;42.656;21.156;2022-07-10T05:34:40;15.32;;;10.65;;
32198;SDS011;19221;42.656;21.156;2022-07-10T05:37:06;15.60;;;11.23;;
32198;SDS011;19221;42.656;21.156;2022-07-10T05:39:33;15.18;;;10.45;;
32198;SDS011;19221;42.656;21.156;2022-07-10T05:41:59;16.08;;;10.35;;
32198;SDS011;19221;42.656;21.156;2022-07-10T05:44:24;16.38;;;10.60;;
32198;SDS011;19221;42.656;21.156;2022-07-10T05:46:58;15.38;;;10.07;;
32198;SDS011;19221;42.656;21.156;2022-07-10T05:49:27;13.40;;;10.10;;
32198;SDS011;19221;42.656;21.156;2022-07-10T05:51:57;15.30;;;10.40;;
32198;SDS011;19221;42.656;21.156;2022-07-10T05:54:24;16.08;;;10.73;;
32198;SDS011;19221;42.656;21.156;2022-07-10T05:56:54;15.75;;;10.38;;
32198;SDS011;19221;42.656;21.156;2022-07-10T05:59:22;15.30;;;10.73;;
32198;SDS011;19221;42.656;21.156;2022-07-10T06:01:53;13.18;;;9.05;;
32198;SDS011;19221;42.656;21.156;2022-07-10T06:04:40;14.63;;;10.20;;
32198;SDS011;19221;42.656;21.156;2022-07-10T06:07:09;13.52;;;10.32;;
32198;SDS011;19221;42.656;21.156;2022-07-10T06:09:34;16.30;;;11.75;;
32198;SDS011;19221;42.656;21.156;2022-07-10T06:12:05;21.27;;;11.05;;
32198;SDS011;19221;42.656;21.156;2022-07-10T06:14:32;14.02;;;9.80;;
32198;SDS011;19221;42.656;21.156;2022-07-10T06:17:00;15.23;;;9.40;;
32198;SDS011;19221;42.656;21.156;2022-07-10T06:19:36;11.55;;;8.65;;
32198;SDS011;19221;42.656;21.156;2022-07-10T06:22:02;13.75;;;9.15;;
32198;SDS011;19221;42.656;21.156;2022-07-10T06:24:48;13.45;;;9.55;;
32198;SDS011;19221;42.656;21.156;2022-07-10T06:27:18;12.43;;;9.75;;
32198;SDS011;19221;42.656;21.156;2022-07-10T06:29:47;13.20;;;10.25;;
32198;SDS011;19221;42.656;21.156;2022-07-10T06:32:15;18.10;;;11.02;;
32198;SDS011;19221;42.656;21.156;2022-07-10T06:34:41;20.23;;;10.90;;
32198;SDS011;19221;42.656;21.156;2022-07-10T06:37:07;13.70;;;9.75;;
32198;SDS011;19221;42.656;21.156;2022-07-10T06:39:33;13.63;;;10.02;;
32198;SDS011;19221;42.656;21.156;2022-07-10T06:42:03;14.52;;;10.82;;
32198;SDS011;19221;42.656;21.156;2022-07-10T06:44:30;15.90;;;9.60;;
32198;SDS011;19221;42.656;21.156;2022-07-10T06:50:20;16.10;;;9.52;;
32198;SDS011;19221;42.656;21.156;2022-07-10T06:52:51;21.95;;;9.52;;
32198;SDS011;19221;42.656;21.156;2022-07-10T06:55:20;11.07;;;7.72;;
32198;SDS011;19221;42.656;21.156;2022-07-10T06:57:46;10.30;;;7.93;;
32198;SDS011;19221;42.656;21.156;2022-07-10T07:00:13;12.52;;;8.00;;
32198;SDS011;19221;42.656;21.156;2022-07-10T07:05:42;9.98;;;6.43;;
32198;SDS011;19221;42.656;21.156;2022-07-10T07:08:17;8.82;;;5.68;;
32198;SDS011;19221;42.656;21.156;2022-07-10T07:10:48;9.18;;;5.47;;
32198;SDS011;19221;42.656;21.156;2022-07-10T07:13:14;7.47;;;4.70;;
32198;SDS011;19221;42.656;21.156;2022-07-10T07:15:42;12.30;;;4.40;;
32198;SDS011;19221;42.656;21.156;2022-07-10T07:21:07;7.05;;;4.10;;
32198;SDS011;19221;42.656;21.156;2022-07-10T07:23:54;7.85;;;4.20;;
32198;SDS011;19221;42.656;21.156;2022-07-10T07:26:26;7.20;;;4.00;;
32198;SDS011;19221;42.656;21.156;2022-07-10T07:28:54;8.98;;;3.42;;
32198;SDS011;19221;42.656;21.156;2022-07-10T07:31:22;6.05;;;3.10;;
32198;SDS011;19221;42.656;21.156;2022-07-10T07:33:50;5.10;;;3.58;;
32198;SDS011;19221;42.656;21.156;2022-07-10T07:36:16;6.80;;;3.33;;
32198;SDS011;19221;42.656;21.156;2022-07-10T07:38:45;8.55;;;3.08;;
32198;SDS011;19221;42.656;21.156;2022-07-10T07:41:12;6.70;;;2.78;;
32198;SDS011;19221;42.656;21.156;2022-07-10T07:43:38;6.47;;;3.33;;
32198;SDS011;19221;42.656;21.156;2022-07-10T07:46:23;6.18;;;3.70;;
32198;SDS011;19221;42.656;21.156;2022-07-10T07:48:49;6.95;;;4.10;;
32198;SDS011;19221;42.656;21.156;2022-07-10T07:51:17;8.98;;;4.18;;
32198;SDS011;19221;42.656;21.156;2022-07-10T07:53:45;7.35;;;4.28;;
32198;SDS011;19221;42.656;21.156;2022-07-10T07:56:14;7.63;;;3.75;;
32198;SDS011;19221;42.656;21.156;2022-07-10T07:58:39;7.28;;;3.00;;
32198;SDS011;19221;42.656;21.156;2022-07-10T08:01:10;8.93;;;3.85;;
32198;SDS011;19221;42.656;21.156;2022-07-10T08:03:46;4.85;;;3.15;;
32198;SDS011;19221;42.656;21.156;2022-07-10T08:06:13;5.25;;;3.30;;
32198;SDS011;19221;42.656;21.156;2022-07-10T08:08:59;5.05;;;3.22;;
32198;SDS011;19221;42.656;21.156;2022-07-10T08:11:25;6.80;;;3.22;;
32198;SDS011;19221;42.656;21.156;2022-07-10T08:13:53;4.75;;;3.03;;
32198;SDS011;19221;42.656;21.156;2022-07-10T08:16:20;4.13;;;2.67;;
32198;SDS011;19221;42.656;21.156;2022-07-10T08:18:51;6.40;;;3.47;;
32198;SDS011;19221;42.656;21.156;2022-07-10T08:21:21;5.88;;;3.15;;
32198;SDS011;19221;42.656;21.156;2022-07-10T08:23:50;5.97;;;3.25;;
32198;SDS011;19221;42.656;21.156;2022-07-10T08:26:19;11.88;;;3.35;;
32198;SDS011;19221;42.656;21.156;2022-07-10T08:28:46;5.82;;;3.40;;
32198;SDS011;19221;42.656;21.156;2022-07-10T08:34:16;6.13;;;2.80;;
32198;SDS011;19221;42.656;21.156;2022-07-10T08:36:42;6.93;;;3.28;;
32198;SDS011;19221;42.656;21.156;2022-07-10T08:39:07;3.33;;;2.78;;
32198;SDS011;19221;42.656;21.156;2022-07-10T08:41:34;5.05;;;2.80;;
32198;SDS011;19221;42.656;21.156;2022-07-10T08:44:00;3.35;;;3.03;;
32198;SDS011;19221;42.656;21.156;2022-07-10T08:46:28;5.13;;;2.40;;
32198;SDS011;19221;42.656;21.156;2022-07-10T08:48:57;5.20;;;2.72;;
32198;SDS011;19221;42.656;21.156;2022-07-10T08:51:27;3.80;;;2.40;;
32198;SDS011;19221;42.656;21.156;2022-07-10T08:53:57;2.08;;;1.88;;
32198;SDS011;19221;42.656;21.156;2022-07-10T08:56:24;9.23;;;2.63;;
32198;SDS011;19221;42.656;21.156;2022-07-10T08:58:49;5.35;;;2.50;;
32198;SDS011;19221;42.656;21.156;2022-07-10T09:01:18;3.05;;;2.40;;
32198;SDS011;19221;42.656;21.156;2022-07-10T09:04:02;5.63;;;2.47;;
32198;SDS011;19221;42.656;21.156;2022-07-10T09:06:28;7.97;;;2.67;;
32198;SDS011;19221;42.656;21.156;2022-07-10T09:09:06;5.63;;;2.40;;
32198;SDS011;19221;42.656;21.156;2022-07-10T09:11:33;4.63;;;2.35;;
32198;SDS011;19221;42.656;21.156;2022-07-10T09:13:59;5.65;;;2.60;;
32198;SDS011;19221;42.656;21.156;2022-07-10T09:16:26;3.72;;;2.47;;
32198;SDS011;19221;42.656;21.156;2022-07-10T09:18:54;3.38;;;2.65;;
32198;SDS011;19221;42.656;21.156;2022-07-10T09:21:21;2.88;;;2.20;;
32198;SDS011;19221;42.656;21.156;2022-07-10T09:23:49;4.43;;;2.22;;
32198;SDS011;19221;42.656;21.156;2022-07-10T09:26:15;3.30;;;2.58;;
32198;SDS011;19221;42.656;21.156;2022-07-10T09:28:42;10.43;;;2.55;;
32198;SDS011;19221;42.656;21.156;2022-07-10T09:31:07;3.83;;;2.63;;
32198;SDS011;19221;42.656;21.156;2022-07-10T09:33:33;6.78;;;2.83;;
32198;SDS011;19221;42.656;21.156;2022-07-10T09:41:17;3.45;;;2.15;;
32198;SDS011;19221;42.656;21.156;2022-07-10T09:43:48;6.45;;;2.70;;
32198;SDS011;19221;42.656;21.156;2022-07-10T09:46:14;5.45;;;3.20;;
32198;SDS011;19221;42.656;21.156;2022-07-10T09:48:40;5.82;;;3.10;;
32198;SDS011;19221;42.656;21.156;2022-07-10T09:51:09;4.63;;;3.08;;
32198;SDS011;19221;42.656;21.156;2022-07-10T09:53:39;3.67;;;2.72;;
32198;SDS011;19221;42.656;21.156;2022-07-10T09:56:09;3.28;;;2.83;;
32198;SDS011;19221;42.656;21.156;2022-07-10T09:58:35;8.85;;;3.10;;
32198;SDS011;19221;42.656;21.156;2022-07-10T10:01:05;6.95;;;3.42;;
32198;SDS011;19221;42.656;21.156;2022-07-10T10:03:50;6.35;;;3.22;;
32198;SDS011;19221;42.656;21.156;2022-07-10T10:06:16;10.43;;;3.70;;
32198;SDS011;19221;42.656;21.156;2022-07-10T10:11:09;6.72;;;2.70;;
32198;SDS011;19221;42.656;21.156;2022-07-10T10:13:39;6.97;;;2.92;;
32198;SDS011;19221;42.656;21.156;2022-07-10T10:16:05;6.53;;;2.70;;
32198;SDS011;19221;42.656;21.156;2022-07-10T10:18:34;10.38;;;4.15;;
32198;SDS011;19221;42.656;21.156;2022-07-10T10:21:02;6.72;;;3.00;;
32198;SDS011;19221;42.656;21.156;2022-07-10T10:23:33;5.63;;;2.85;;
32198;SDS011;19221;42.656;21.156;2022-07-10T10:25:59;7.75;;;2.67;;
32198;SDS011;19221;42.656;21.156;2022-07-10T10:28:26;5.22;;;3.00;;
32198;SDS011;19221;42.656;21.156;2022-07-10T10:30:55;4.03;;;2.70;;
32198;SDS011;19221;42.656;21.156;2022-07-10T10:35:57;3.53;;;2.95;;
32198;SDS011;19221;42.656;21.156;2022-07-10T10:38:23;7.60;;;3.05;;
32198;SDS011;19221;42.656;21.156;2022-07-10T10:40:51;6.20;;;2.88;;
32198;SDS011;19221;42.656;21.156;2022-07-10T10:43:21;4.95;;;2.90;;
32198;SDS011;19221;42.656;21.156;2022-07-10T10:46:00;4.82;;;2.80;;
32198;SDS011;19221;42.656;21.156;2022-07-10T10:49:03;4.32;;;3.05;;
32198;SDS011;19221;42.656;21.156;2022-07-10T10:54:13;8.98;;;3.08;;
32198;SDS011;19221;42.656;21.156;2022-07-10T10:56:39;4.50;;;2.95;;
32198;SDS011;19221;42.656;21.156;2022-07-10T10:59:05;5.75;;;3.17;;
32198;SDS011;19221;42.656;21.156;2022-07-10T11:01:31;7.07;;;3.42;;
32198;SDS011;19221;42.656;21.156;2022-07-10T11:09:24;3.63;;;2.58;;
32198;SDS011;19221;42.656;21.156;2022-07-10T11:12:03;5.90;;;2.70;;
32198;SDS011;19221;42.656;21.156;2022-07-10T11:14:31;5.32;;;2.67;;
32198;SDS011;19221;42.656;21.156;2022-07-10T11:16:57;8.82;;;2.50;;
32198;SDS011;19221;42.656;21.156;2022-07-10T11:19:23;4.32;;;3.00;;
32198;SDS011;19221;42.656;21.156;2022-07-10T11:21:52;3.75;;;2.70;;
32198;SDS011;19221;42.656;21.156;2022-07-10T11:24:33;3.78;;;2.50;;
32198;SDS011;19221;42.656;21.156;2022-07-10T11:29:56;4.40;;;2.67;;
32198;SDS011;19221;42.656;21.156;2022-07-10T11:32:23;3.17;;;2.88;;
32198;SDS011;19221;42.656;21.156;2022-07-10T11:34:49;4.20;;;2.63;;
32198;SDS011;19221;42.656;21.156;2022-07-10T11:37:16;8.45;;;2.70;;
32198;SDS011;19221;42.656;21.156;2022-07-10T11:39:42;4.32;;;2.67;;
32198;SDS011;19221;42.656;21.156;2022-07-10T11:42:21;6.22;;;2.50;;
32198;SDS011;19221;42.656;21.156;2022-07-10T11:44:57;3.13;;;2.65;;
32198;SDS011;19221;42.656;21.156;2022-07-10T11:47:23;3.75;;;2.40;;
32198;SDS011;19221;42.656;21.156;2022-07-10T11:49:51;3.42;;;2.65;;
32198;SDS011;19221;42.656;21.156;2022-07-10T11:52:17;3.08;;;2.72;;
32198;SDS011;19221;42.656;21.156;2022-07-10T11:54:43;3.10;;;2.70;;
32198;SDS011;19221;42.656;21.156;2022-07-10T11:57:09;5.60;;;2.53;;
32198;SDS011;19221;42.656;21.156;2022-07-10T11:59:36;5.32;;;2.70;;
32198;SDS011;19221;42.656;21.156;2022-07-10T12:02:01;5.13;;;2.58;;
32198;SDS011;19221;42.656;21.156;2022-07-10T12:04:30;5.10;;;3.40;;
32198;SDS011;19221;42.656;21.156;2022-07-10T12:06:56;4.70;;;2.90;;
32198;SDS011;19221;42.656;21.156;2022-07-10T12:09:22;3.28;;;2.40;;
32198;SDS011;19221;42.656;21.156;2022-07-10T12:12:05;2.88;;;2.50;;
32198;SDS011;19221;42.656;21.156;2022-07-10T12:14:31;5.78;;;2.53;;
32198;SDS011;19221;42.656;21.156;2022-07-10T12:19:48;3.42;;;2.50;;
32198;SDS011;19221;42.656;21.156;2022-07-10T12:22:20;3.65;;;2.20;;
32198;SDS011;19221;42.656;21.156;2022-07-10T12:24:46;2.83;;;2.10;;
32198;SDS011;19221;42.656;21.156;2022-07-10T12:27:22;6.40;;;2.65;;
32198;SDS011;19221;42.656;21.156;2022-07-10T12:30:01;4.90;;;2.60;;
32198;SDS011;19221;42.656;21.156;2022-07-10T12:32:32;4.05;;;2.53;;
32198;SDS011;19221;42.656;21.156;2022-07-10T12:34:58;4.38;;;2.42;;
32198;SDS011;19221;42.656;21.156;2022-07-10T12:37:24;5.15;;;2.38;;
32198;SDS011;19221;42.656;21.156;2022-07-10T12:39:51;7.38;;;2.53;;
32198;SDS011;19221;42.656;21.156;2022-07-10T12:42:29;3.95;;;2.50;;
32198;SDS011;19221;42.656;21.156;2022-07-10T12:45:17;4.50;;;2.50;;
32198;SDS011;19221;42.656;21.156;2022-07-10T12:47:49;8.98;;;4.72;;
32198;SDS011;19221;42.656;21.156;2022-07-10T12:50:16;4.80;;;2.55;;
32198;SDS011;19221;42.656;21.156;2022-07-10T12:52:43;3.47;;;3.05;;
32198;SDS011;19221;42.656;21.156;2022-07-10T12:55:16;6.57;;;3.17;;
32198;SDS011;19221;42.656;21.156;2022-07-10T12:58:06;2.85;;;2.38;;
32198;SDS011;19221;42.656;21.156;2022-07-10T13:00:44;4.05;;;2.40;;
32198;SDS011;19221;42.656;21.156;2022-07-10T13:06:29;3.63;;;2.53;;
32198;SDS011;19221;42.656;21.156;2022-07-10T13:08:55;5.82;;;2.38;;
32198;SDS011;19221;42.656;21.156;2022-07-10T13:11:22;3.08;;;2.33;;
32198;SDS011;19221;42.656;21.156;2022-07-10T13:13:50;3.38;;;2.22;;
32198;SDS011;19221;42.656;21.156;2022-07-10T13:16:16;3.83;;;2.33;;
32198;SDS011;19221;42.656;21.156;2022-07-10T13:19:00;3.63;;;2.65;;
32198;SDS011;19221;42.656;21.156;2022-07-10T13:21:26;2.90;;;2.55;;
32198;SDS011;19221;42.656;21.156;2022-07-10T13:23:53;4.43;;;2.80;;
32198;SDS011;19221;42.656;21.156;2022-07-10T13:26:19;3.58;;;2.67;;
32198;SDS011;19221;42.656;21.156;2022-07-10T13:28:45;3.53;;;2.70;;
32198;SDS011;19221;42.656;21.156;2022-07-10T13:31:11;3.38;;;2.63;;
32198;SDS011;19221;42.656;21.156;2022-07-10T13:33:38;3.25;;;2.42;;
32198;SDS011;19221;42.656;21.156;2022-07-10T13:36:03;3.45;;;2.50;;
32198;SDS011;19221;42.656;21.156;2022-07-10T13:38:29;2.55;;;2.25;;
32198;SDS011;19221;42.656;21.156;2022-07-10T13:40:56;3.20;;;2.22;;
32198;SDS011;19221;42.656;21.156;2022-07-10T13:43:21;3.78;;;2.50;;
32198;SDS011;19221;42.656;21.156;2022-07-10T13:45:52;2.87;;;2.27;;
32198;SDS011;19221;42.656;21.156;2022-07-10T13:48:18;4.25;;;2.60;;
32198;SDS011;19221;42.656;21.156;2022-07-10T13:50:44;5.03;;;2.95;;
32198;SDS011;19221;42.656;21.156;2022-07-10T13:53:12;5.07;;;2.80;;
32198;SDS011;19221;42.656;21.156;2022-07-10T13:55:38;3.15;;;2.65;;
32198;SDS011;19221;42.656;21.156;2022-07-10T13:58:04;5.50;;;2.63;;
32198;SDS011;19221;42.656;21.156;2022-07-10T14:00:29;5.35;;;3.00;;
32198;SDS011;19221;42.656;21.156;2022-07-10T14:02:55;3.25;;;2.92;;
32198;SDS011;19221;42.656;21.156;2022-07-10T14:05:23;5.90;;;2.97;;
32198;SDS011;19221;42.656;21.156;2022-07-10T14:07:49;5.50;;;3.10;;
32198;SDS011;19221;42.656;21.156;2022-07-10T14:10:15;3.08;;;2.78;;
32198;SDS011;19221;42.656;21.156;2022-07-10T14:12:41;4.00;;;3.30;;
32198;SDS011;19221;42.656;21.156;2022-07-10T14:15:07;5.13;;;3.10;;
32198;SDS011;19221;42.656;21.156;2022-07-10T14:17:37;4.57;;;3.17;;
32198;SDS011;19221;42.656;21.156;2022-07-10T14:20:04;5.70;;;3.38;;
32198;SDS011;19221;42.656;21.156;2022-07-10T14:22:33;4.90;;;3.13;;
32198;SDS011;19221;42.656;21.156;2022-07-10T14:25:00;6.78;;;3.25;;
32198;SDS011;19221;42.656;21.156;2022-07-10T14:27:26;6.25;;;3.47;;
32198;SDS011;19221;42.656;21.156;2022-07-10T14:29:53;3.97;;;3.40;;
32198;SDS011;19221;42.656;21.156;2022-07-10T14:32:24;4.05;;;3.65;;
32198;SDS011;19221;42.656;21.156;2022-07-10T14:34:50;4.60;;;4.10;;
32198;SDS011;19221;42.656;21.156;2022-07-10T14:37:16;6.05;;;4.15;;
32198;SDS011;19221;42.656;21.156;2022-07-10T14:39:41;4.55;;;3.92;;
32198;SDS011;19221;42.656;21.156;2022-07-10T14:42:08;5.13;;;4.35;;
32198;SDS011;19221;42.656;21.156;2022-07-10T14:44:35;4.70;;;4.28;;
32198;SDS011;19221;42.656;21.156;2022-07-10T14:47:01;10.35;;;4.25;;
32198;SDS011;19221;42.656;21.156;2022-07-10T14:49:27;5.80;;;4.70;;
32198;SDS011;19221;42.656;21.156;2022-07-10T14:51:52;5.47;;;4.57;;
32198;SDS011;19221;42.656;21.156;2022-07-10T14:54:20;5.20;;;4.35;;
32198;SDS011;19221;42.656;21.156;2022-07-10T14:56:46;6.93;;;4.93;;
32198;SDS011;19221;42.656;21.156;2022-07-10T14:59:11;7.43;;;4.65;;
32198;SDS011;19221;42.656;21.156;2022-07-10T15:01:37;6.13;;;4.72;;
32198;SDS011;19221;42.656;21.156;2022-07-10T15:04:03;4.63;;;4.20;;
32198;SDS011;19221;42.656;21.156;2022-07-10T15:06:28;7.70;;;4.25;;
32198;SDS011;19221;42.656;21.156;2022-07-10T15:08:54;5.28;;;4.47;;
32198;SDS011;19221;42.656;21.156;2022-07-10T15:11:20;7.95;;;4.70;;
32198;SDS011;19221;42.656;21.156;2022-07-10T15:13:51;5.15;;;4.25;;
32198;SDS011;19221;42.656;21.156;2022-07-10T15:16:18;6.88;;;4.68;;
32198;SDS011;19221;42.656;21.156;2022-07-10T15:18:44;5.82;;;3.90;;
32198;SDS011;19221;42.656;21.156;2022-07-10T15:21:09;4.00;;;3.60;;
32198;SDS011;19221;42.656;21.156;2022-07-10T15:23:36;5.65;;;3.65;;
32198;SDS011;19221;42.656;21.156;2022-07-10T15:26:02;5.03;;;3.50;;
32198;SDS011;19221;42.656;21.156;2022-07-10T15:28:29;4.80;;;3.67;;
32198;SDS011;19221;42.656;21.156;2022-07-10T15:30:55;5.22;;;3.85;;
32198;SDS011;19221;42.656;21.156;2022-07-10T15:33:40;4.07;;;3.50;;